If you wish to contribute or participate in the discussions about articles you are invited to join SKYbrary as a registered user

 Actions

Teresina Airport

From SKYbrary Wiki

SBTE
Airport
ICAO: SBTE – IATA: THE
Summary
Name Teresina Airport
Region South America and Caribbean
Territory Brazil BR.gif
Location Teresina, Piaui
Serving Teresina
Elevation 66.751 m
219 ft66.751 m
Coordinates 5° 3' 38.02" S, 42° 49' 27.98" W
Runways
Designator Length Width Surface ROPS
2/20 2200 m7,217.848 ft
45 m147.638 ft
ASP yes/yes


METAR
Observation SBTE 171900Z 09003KT 9999 SCT040 36/16 Q1008
Station Teresina Aeroporto
Date/Time 17 September 2019 19:00:00
Wind direction 90°
Wind speed 03 kts
Lowest cloud amount scattered clouds
Temperature 36°C
Dew point 16°C
Humidity 30%
QNH 1008 hPa
Weather condition n/a

Teresina–Senador Petrônio Portella Airport is the airport serving Teresina, Brazil.

Climatology

Tropical savanna climate (Köppen climate classification Aw)

Maps

Terrain

Loading map...

Airport Layout

Loading map...


Accidents & Serious Incidents at or in vicinity of SBTE

None on SKYbrary